Latest Coastal Weather Observations for Samuel Hill

IDQ60701

Issued at 2:12 am EST Sunday 29 March 2015 (issued every 10 minutes, with the page automatically refreshed every 10 minutes)

About coastal observations | Map of coastal stations | Coastal observations for QLD | Marine services | Other Formats
Station Details ID: 033308 Name: SAMUEL HILL AERO Lat: -22.74 Lon: 150.66 Height: 31.0 m
Data from the previous 72 hours. | See also: Recent months at Samuel Hill
Date/Time
EST
Temp

°C
Wind Pressure Rain
since 9am
mm
Weather Cloud Vis
km
Sea
Height
m
Swell
Dir
 
Speed
knots
Gust
knots
hPa Trend Height
m
Period
s
Dir
29/02:00am 21.5 S 1 5 1016.9 - 0.0 - - 10 - - - -
29/01:30am 21.9 CALM 0 0 1017.1 - 0.0 - - 10 - - - -
29/01:00am 22.3 SSE 3 4 1017.3 - 0.0 - Partly cloudy 10 - - - -
29/12:30am 23.2 E 3 4 1017.5 - 0.0 - - 10 - - - -
 
Date/Time
EST
Temp

°C
Wind Pressure Rain
since 9am
mm
Weather Cloud Vis
km
Sea
Height
m
Swell
Dir
 
Speed
knots
Gust
knots
hPa Trend Height
m
Period
s
Dir
28/11:30pm 24.3 E 4 5 1017.9 - 0.0 - - 10 - - - -
28/11:00pm 24.7 E 6 8 1018.0 - 0.0 - - 10 - - - -
28/10:30pm 24.7 E 5 6 1018.3 - 0.0 - Partly cloudy 10 - - - -
28/10:00pm 25.1 E 5 7 1018.4 - 0.0 - Partly cloudy 10 - - - -
28/09:30pm 25.0 E 5 7 1018.2 - 0.0 - Partly cloudy 10 - - - -
28/09:00pm 25.1 E 4 7 1018.2 - 0.0 - Mostly clear 10 - - - -
28/08:30pm 24.5 SSE 2 4 1018.1 - 0.0 - Partly cloudy 10 - - - -
28/08:00pm 24.7 SE 3 4 1017.7 - 0.0 - Partly cloudy 10 - - - -
28/07:30pm 25.0 ESE 1 6 1017.2 - 0.0 - Partly cloudy 10 - - - -
28/07:00pm 25.3 ESE 2 4 1016.9 - 0.0 - Partly cloudy 10 - - - -
28/06:30pm 25.9 ESE 5 9 1016.6 - 0.0 - Partly cloudy 10 - - - -
28/06:00pm 26.3 SE 9 13 1016.3 - 0.0 - Mostly clear 10 - - - -
28/05:30pm 27.1 ESE 9 14 1016.1 - 0.0 - Partly cloudy 10 - - - -
28/05:00pm 27.7 ESE 10 13 1015.8 - 0.0 - - 10 - - - -
28/04:30pm 28.6 SE 10 14 1015.9 - 0.0 - Partly cloudy 10 - - - -
28/04:00pm 28.9 SE 10 15 1016.0 - 0.0 - Partly cloudy 10 - - - -
28/03:30pm 29.4 ESE 10 15 1015.9 - 0.0 - Partly cloudy 10 - - - -
28/03:00pm 29.3 E 9 13 1015.8 - 0.0 - Partly cloudy 10 - - - -
28/02:30pm 29.0 ESE 8 13 1015.8 - 0.0 - Partly cloudy 10 - - - -
28/02:00pm 29.3 ESE 9 14 1016.0 - 0.0 - Partly cloudy 10 - - - -
28/01:30pm 30.0 ESE 10 16 1016.3 - 0.0 - Partly cloudy 10 - - - -
28/01:00pm 29.4 ESE 10 14 1016.6 - 0.0 - Partly cloudy 10 - - - -
28/12:30pm 29.7 ESE 8 10 1017.0 - 0.0 - Partly cloudy 10 - - - -
28/12:00pm 30.1 SE 9 14 1017.4 - 0.0 - Cloudy 10 - - - -
28/11:30am 29.7 ESE 9 16 1017.9 - 0.0 - Partly cloudy 10 - - - -
28/11:00am 29.6 ESE 9 14 1018.2 - 0.0 - Partly cloudy 10 - - - -
28/10:30am 29.0 SE 9 13 1018.4 - 0.0 - Partly cloudy 10 - - - -
28/10:00am 29.3 SE 9 13 1018.6 - 0.0 - Partly cloudy 10 - - - -
28/09:30am 28.9 ESE 9 13 1018.5 - 0.0 - Partly cloudy 10 - - - -
28/09:00am 27.6 ESE 7 11 1018.4 - 0.0 - Mostly cloudy 10 - - - -
28/08:30am 27.1 SE 5 7 1018.3 - 0.0 - Partly cloudy 10 - - - -
28/08:00am 26.6 S 4 6 1018.1 - 0.0 - - 10 - - - -
28/07:30am 24.5 E 1 4 1017.6 - 0.0 - - 10 - - - -
28/07:00am 21.8 CALM 0 0 1017.4 - 0.0 - - 10 - - - -
28/06:30am 20.1 CALM 0 0 1017.1 - 0.0 - - 10 - - - -
28/06:00am 19.4 CALM 0 0 1016.7 - 0.0 - - 10 - - - -
28/05:30am 19.5 CALM 0 0 1016.5 - 0.0 - - 10 - - - -
28/05:00am 20.0 CALM 0 0 1016.3 - 0.0 - - 10 - - - -
28/04:30am 19.9 CALM 0 0 1016.0 - 0.0 - - 10 - - - -
28/04:00am 20.2 CALM 0 0 1015.9 - 0.0 - - 10 - - - -
28/03:30am 20.5 CALM 0 0 1015.8 - 0.0 - - 10 - - - -
28/03:00am 20.5 CALM 0 0 1015.8 - 0.0 - Mostly clear 10 - - - -
28/02:30am 21.1 CALM 0 0 1016.1 - 0.0 - Partly cloudy 10 - - - -
28/02:00am 21.4 CALM 0 0 1016.2 - 0.0 - Partly cloudy 10 - - - -
28/01:30am 21.3 CALM 0 0 1016.3 - 0.0 - Partly cloudy 10 - - - -
28/01:00am 21.5 CALM 0 0 1016.5 - 0.0 - Partly cloudy 10 - - - -
28/12:30am 21.3 CALM 0 0 1016.9 - 0.0 - Partly cloudy 10 - - - -
28/12:00am 21.4 CALM 0 0 1017.0 - 0.0 - Mostly clear 10 - - - -
 
Date/Time
EST
Temp

°C
Wind Pressure Rain
since 9am
mm
Weather Cloud Vis
km
Sea
Height
m
Swell
Dir
 
Speed
knots
Gust
knots
hPa Trend Height
m
Period
s
Dir
27/11:30pm 21.6 CALM 0 0 1017.2 - 0.0 - Partly cloudy 10 - - - -
27/11:00pm 22.0 E 2 4 1017.3 - 0.0 - Partly cloudy 10 - - - -
27/10:30pm 21.8 CALM 0 0 1017.4 - 0.0 - - 10 - - - -
27/10:00pm 22.0 CALM 0 0 1017.4 - 0.0 - - 10 - - - -
27/09:30pm 22.3 CALM 0 3 1017.2 - 0.0 - - 10 - - - -
27/09:00pm 22.7 E 3 3 1017.0 - 0.0 - - 10 - - - -
27/08:30pm 22.9 E 3 4 1016.8 - 0.0 - - 10 - - - -
27/08:00pm 23.8 E 3 3 1016.6 - 0.0 - - 10 - - - -
27/07:30pm 24.1 E 3 4 1016.3 - 0.0 - - 10 - - - -
27/07:00pm 24.6 ENE 3 6 1016.0 - 0.0 - - 10 - - - -
27/06:30pm 25.5 ENE 4 6 1015.6 - 0.0 - - 10 - - - -
27/06:00pm 26.3 ENE 6 8 1015.3 - 0.0 - - 10 - - - -
27/05:30pm 27.5 ENE 7 10 1015.0 - 0.0 - - 10 - - - -
27/05:00pm 28.8 E 6 9 1014.8 - 0.0 - - 10 - - - -
27/04:30pm 29.3 ESE 7 9 1014.6 - 0.0 - - 10 - - - -
27/04:00pm 29.8 SE 7 11 1014.5 - 0.0 - - 10 - - - -
27/03:30pm 30.1 ESE 9 13 1014.4 - 0.0 - - 10 - - - -
27/03:00pm 30.2 SE 9 15 1014.5 - 0.0 - - 10 - - - -
27/02:30pm 31.2 ESE 7 11 1014.7 - 0.0 - - 10 - - - -
27/02:00pm 31.0 SE 9 14 1014.9 - 0.0 - - 10 - - - -
27/01:30pm 31.0 ESE 10 16 1015.3 - 0.0 - - 10 - - - -
27/01:00pm 31.5 SE 7 15 1015.6 - 0.0 - - 10 - - - -
27/12:30pm 31.9 SE 7 10 1016.0 - 0.0 - - 10 - - - -
27/12:00pm 31.3 E 7 11 1016.6 - 0.0 - Mostly clear 10 - - - -
27/11:30am 29.7 SE 7 11 1017.3 - 0.0 - Partly cloudy 10 - - - -
27/11:00am 30.7 E 7 11 1017.6 - 0.0 - Partly cloudy 10 - - - -
27/10:30am 29.6 ENE 7 13 1018.2 - 0.0 - Partly cloudy 10 - - - -
27/10:00am 29.7 NE 7 9 1018.4 - 0.0 - Partly cloudy 10 - - - -
27/09:30am 29.3 ENE 8 11 1018.6 - 0.0 - Partly cloudy 10 - - - -
27/09:00am 27.7 ENE 5 7 1018.6 - - - Mostly clear 10 - - - -
27/08:30am 26.7 ESE 3 4 1018.5 - - - - 10 - - - -
27/08:00am 25.3 SSE 3 4 1018.4 - - - Partly cloudy 10 - - - -
27/07:30am 22.4 CALM 0 0 1018.3 - - - Partly cloudy 10 - - - -
27/07:00am 20.2 CALM 0 0 1017.9 - 0.0 - - 10 - - - -
27/06:30am 20.0 ENE 1 3 1017.8 - 0.0 - - 10 - - - -
27/06:00am 20.1 CALM 0 0 1017.5 - 0.0 - Cloudy 10 - - - -
27/05:30am 19.1 CALM 0 0 1017.0 - 0.0 - - 10 - - - -
27/05:00am 19.4 CALM 0 0 1016.6 - 0.0 - - 10 - - - -
27/04:30am 19.5 CALM 0 0 1016.5 - 0.0 - - 10 - - - -
27/04:00am 19.7 CALM 0 0 1016.3 - 0.0 - - 10 - - - -
27/03:30am 19.9 CALM 0 0 1016.2 - 0.0 - - 10 - - - -
27/03:00am 20.0 CALM 0 0 1016.2 - 0.0 - - 10 - - - -
27/02:30am 20.3 CALM 0 0 1016.3 - 0.0 - Partly cloudy 10 - - - -
27/02:00am 20.3 E 1 4 1016.5 - 0.0 - - 10 - - - -
27/01:30am 20.3 CALM 0 0 1016.6 - 0.0 - Partly cloudy 10 - - - -
27/01:00am 20.6 CALM 0 0 1016.9 - 0.0 - - 10 - - - -
27/12:30am 20.7 CALM 0 0 1017.1 - 0.0 - - 10 - - - -
27/12:00am 20.9 CALM 0 0 1017.5 - 0.0 - Mostly clear 10 - - - -
 
Date/Time
EST
Temp

°C
Wind Pressure Rain
since 9am
mm
Weather Cloud Vis
km
Sea
Height
m
Swell
Dir
 
Speed
knots
Gust
knots
hPa Trend Height
m
Period
s
Dir
26/11:30pm 21.3 E 1 3 1017.6 - 0.0 - - 10 - - - -
26/11:00pm 21.2 E 2 4 1017.7 - 0.0 - - 10 - - - -
26/10:30pm 21.9 CALM 0 1 1017.8 - 0.0 - - 10 - - - -
26/10:00pm 21.4 CALM 0 0 1017.8 - 0.0 - - 10 - - - -
26/09:30pm 22.7 SE 4 5 1017.9 - 0.0 - - 10 - - - -
26/09:00pm 22.8 ESE 2 3 1017.6 - 0.0 - - 10 - - - -
26/08:30pm 23.4 ESE 2 3 1017.5 - 0.0 - - 10 - - - -
26/08:00pm 24.0 ESE 4 4 1017.2 - 0.0 - - 10 - - - -
26/07:30pm 23.8 CALM 0 0 1016.7 - 0.0 - - 10 - - - -
26/07:00pm 24.6 CALM 0 0 1016.3 - 0.0 - - 10 - - - -
26/06:30pm 25.6 ESE 3 4 1016.2 - 0.0 - - 10 - - - -
26/06:00pm 26.6 ENE 6 9 1015.9 - 0.0 - - 10 - - - -
26/05:30pm 27.7 E 8 12 1015.4 - 0.0 - - 10 - - - -
26/05:00pm 28.8 E 9 12 1015.0 - 0.0 - - 10 - - - -
26/04:30pm 29.7 ENE 7 12 1014.8 - 0.0 - - 10 - - - -
26/04:00pm 30.1 NE 8 13 1014.7 - 0.0 - - 10 - - - -
26/03:30pm 30.4 NE 7 12 1014.5 - 0.0 - - 10 - - - -
26/03:00pm 30.4 NE 7 11 1014.5 - 0.0 - - 10 - - - -
26/02:30pm 31.1 E 8 11 1014.7 - 0.0 - Partly cloudy 10 - - - -
26/02:00pm 30.8 E 8 13 1015.0 - 0.0 - Partly cloudy 10 - - - -
26/01:30pm 31.1 E 8 12 1015.3 - 0.0 - Partly cloudy 10 - - - -
26/01:00pm 30.8 NE 8 17 1015.8 - 0.0 - Partly cloudy 10 - - - -
26/12:30pm 31.2 NNE 8 15 1016.3 - 0.0 - - 10 - - - -
26/12:00pm 31.3 N 6 11 1016.7 - 0.0 - - 10 - - - -
26/11:30am 31.6 ENE 7 11 1017.2 - 0.0 - Partly cloudy 10 - - - -
26/11:00am 29.3 E 7 12 1017.5 - 0.0 - Partly cloudy 10 - - - -
26/10:30am 30.1 NNE 7 11 1017.8 - 0.0 - Partly cloudy 10 - - - -
26/10:00am 29.9 NE 8 11 1017.9 - 0.0 - - 10 - - - -
26/09:30am 29.6 NE 7 11 1018.0 - 0.0 - Partly cloudy 10 - - - -
26/09:00am 27.1 N 3 4 1018.2 - 0.0 - Partly cloudy 10 - - - -
26/08:30am 27.1 NNE 5 6 1017.9 - 0.0 - - 10 - - - -
26/08:00am 26.2 CALM 0 0 1017.6 - 0.0 - - 10 - - - -
26/07:30am 24.2 CALM 0 0 1017.3 - 0.0 - Partly cloudy 10 - - - -
26/07:00am 22.2 CALM 0 0 1017.0 - 0.0 - - 10 - - - -
26/06:30am 19.8 CALM 0 0 1016.7 - 0.0 - - 10 - - - -
26/06:00am 19.5 CALM 0 0 1016.3 - 0.0 - Mostly clear 10 - - - -
26/05:30am 19.4 CALM 0 0 1016.1 - 0.0 - - 10 - - - -
26/05:00am 19.7 CALM 0 0 1015.7 - 0.0 - - 10 - - - -
26/04:30am 20.0 CALM 0 0 1015.5 - 0.0 - - 10 - - - -
26/04:00am 20.0 CALM 0 0 1015.2 - 0.0 - Partly cloudy 10 - - - -
26/03:30am 20.3 CALM 0 0 1015.1 - 0.0 - - 10 - - - -
26/03:00am 20.3 CALM 0 0 1014.9 - 0.0 - - 10 - - - -
26/02:30am 20.7 WNW 2 3 1015.1 - 0.0 - Partly cloudy 10 - - - -

Other Formats:

Comma delimited format used in spreadsheet applications
http://www.bom.gov.au/fwo/IDQ60701/IDQ60701.94370.axf

JavaScript Object Notation format (JSON) in row-major order
http://www.bom.gov.au/fwo/IDQ60701/IDQ60701.94370.json